sensor_id;sensor_type;location;lat;lon;timestamp;P1;durP1;ratioP1;P2;durP2;ratioP2
66298;SDS011;53098;47.658;8.578;2023-01-09T00:02:19;14.38;;;9.38;;
66298;SDS011;53098;47.658;8.578;2023-01-09T00:04:47;13.23;;;9.20;;
66298;SDS011;53098;47.658;8.578;2023-01-09T00:07:13;16.35;;;9.40;;
66298;SDS011;53098;47.658;8.578;2023-01-09T00:09:38;14.40;;;9.05;;
66298;SDS011;53098;47.658;8.578;2023-01-09T00:12:07;15.45;;;8.77;;
66298;SDS011;53098;47.658;8.578;2023-01-09T00:14:32;14.15;;;8.40;;
66298;SDS011;53098;47.658;8.578;2023-01-09T00:16:58;13.45;;;7.85;;
66298;SDS011;53098;47.658;8.578;2023-01-09T00:19:24;14.48;;;8.27;;
66298;SDS011;53098;47.658;8.578;2023-01-09T00:21:52;13.43;;;7.93;;
66298;SDS011;53098;47.658;8.578;2023-01-09T00:24:18;14.32;;;8.07;;
66298;SDS011;53098;47.658;8.578;2023-01-09T00:26:43;13.75;;;8.13;;
66298;SDS011;53098;47.658;8.578;2023-01-09T00:29:09;13.68;;;8.68;;
66298;SDS011;53098;47.658;8.578;2023-01-09T00:31:38;13.13;;;8.73;;
66298;SDS011;53098;47.658;8.578;2023-01-09T00:34:04;12.85;;;7.53;;
66298;SDS011;53098;47.658;8.578;2023-01-09T00:36:30;13.48;;;8.55;;
66298;SDS011;53098;47.658;8.578;2023-01-09T00:38:56;13.30;;;8.48;;
66298;SDS011;53098;47.658;8.578;2023-01-09T00:41:22;12.25;;;7.88;;
66298;SDS011;53098;47.658;8.578;2023-01-09T00:43:49;13.18;;;8.27;;
66298;SDS011;53098;47.658;8.578;2023-01-09T00:46:15;13.68;;;8.02;;
66298;SDS011;53098;47.658;8.578;2023-01-09T00:48:42;12.00;;;7.18;;
66298;SDS011;53098;47.658;8.578;2023-01-09T00:51:09;13.00;;;6.88;;
66298;SDS011;53098;47.658;8.578;2023-01-09T00:53:36;9.35;;;5.05;;
66298;SDS011;53098;47.658;8.578;2023-01-09T00:56:04;8.38;;;4.35;;
66298;SDS011;53098;47.658;8.578;2023-01-09T00:58:31;7.70;;;3.75;;
66298;SDS011;53098;47.658;8.578;2023-01-09T01:00:57;6.50;;;3.20;;
66298;SDS011;53098;47.658;8.578;2023-01-09T01:03:23;7.75;;;2.67;;
66298;SDS011;53098;47.658;8.578;2023-01-09T01:05:51;6.30;;;2.88;;
66298;SDS011;53098;47.658;8.578;2023-01-09T01:08:17;4.07;;;1.70;;
66298;SDS011;53098;47.658;8.578;2023-01-09T01:10:43;3.22;;;1.50;;
66298;SDS011;53098;47.658;8.578;2023-01-09T01:13:09;4.75;;;2.00;;
66298;SDS011;53098;47.658;8.578;2023-01-09T01:15:37;4.10;;;1.48;;
66298;SDS011;53098;47.658;8.578;2023-01-09T01:18:03;3.78;;;1.60;;
66298;SDS011;53098;47.658;8.578;2023-01-09T01:22:59;3.10;;;1.63;;
66298;SDS011;53098;47.658;8.578;2023-01-09T01:25:25;2.72;;;1.60;;
66298;SDS011;53098;47.658;8.578;2023-01-09T01:27:51;4.95;;;2.55;;
66298;SDS011;53098;47.658;8.578;2023-01-09T01:30:19;3.72;;;1.50;;
66298;SDS011;53098;47.658;8.578;2023-01-09T01:32:45;2.67;;;1.35;;
66298;SDS011;53098;47.658;8.578;2023-01-09T01:35:10;3.25;;;1.73;;
66298;SDS011;53098;47.658;8.578;2023-01-09T01:37:36;4.60;;;1.73;;
66298;SDS011;53098;47.658;8.578;2023-01-09T01:40:03;6.93;;;1.55;;
66298;SDS011;53098;47.658;8.578;2023-01-09T01:42:28;3.78;;;1.40;;
66298;SDS011;53098;47.658;8.578;2023-01-09T01:47:32;2.38;;;1.33;;
66298;SDS011;53098;47.658;8.578;2023-01-09T01:49:59;3.60;;;1.52;;
66298;SDS011;53098;47.658;8.578;2023-01-09T01:52:26;3.33;;;1.30;;
66298;SDS011;53098;47.658;8.578;2023-01-09T01:54:51;3.33;;;1.23;;
66298;SDS011;53098;47.658;8.578;2023-01-09T01:57:17;2.50;;;1.42;;
66298;SDS011;53098;47.658;8.578;2023-01-09T01:59:43;2.00;;;1.10;;
66298;SDS011;53098;47.658;8.578;2023-01-09T02:02:10;2.72;;;1.10;;
66298;SDS011;53098;47.658;8.578;2023-01-09T02:04:35;2.55;;;1.48;;
66298;SDS011;53098;47.658;8.578;2023-01-09T02:07:02;3.05;;;1.48;;
66298;SDS011;53098;47.658;8.578;2023-01-09T02:09:28;3.55;;;1.02;;
66298;SDS011;53098;47.658;8.578;2023-01-09T02:11:54;1.43;;;0.83;;
66298;SDS011;53098;47.658;8.578;2023-01-09T02:14:21;1.63;;;1.02;;
66298;SDS011;53098;47.658;8.578;2023-01-09T02:29:47;0.50;;;0.50;;
66298;SDS011;53098;47.658;8.578;2023-01-09T02:35:34;1.48;;;0.60;;
66298;SDS011;53098;47.658;8.578;2023-01-09T02:38:03;0.73;;;0.52;;
66298;SDS011;53098;47.658;8.578;2023-01-09T02:40:33;1.35;;;0.68;;
66298;SDS011;53098;47.658;8.578;2023-01-09T02:43:02;2.10;;;0.68;;
66298;SDS011;53098;47.658;8.578;2023-01-09T02:45:29;0.43;;;0.40;;
66298;SDS011;53098;47.658;8.578;2023-01-09T02:47:54;1.27;;;0.50;;
66298;SDS011;53098;47.658;8.578;2023-01-09T02:50:23;1.00;;;0.53;;
66298;SDS011;53098;47.658;8.578;2023-01-09T02:55:24;0.30;;;0.30;;
66298;SDS011;53098;47.658;8.578;2023-01-09T03:08:00;0.52;;;0.10;;
66298;SDS011;53098;47.658;8.578;2023-01-09T03:10:40;0.50;;;0.32;;
66298;SDS011;53098;47.658;8.578;2023-01-09T03:13:10;1.23;;;0.40;;
66298;SDS011;53098;47.658;8.578;2023-01-09T03:15:36;0.85;;;0.40;;
66298;SDS011;53098;47.658;8.578;2023-01-09T03:18:03;0.40;;;0.32;;
66298;SDS011;53098;47.658;8.578;2023-01-09T03:20:29;0.63;;;0.35;;
66298;SDS011;53098;47.658;8.578;2023-01-09T03:22:56;0.45;;;0.45;;
66298;SDS011;53098;47.658;8.578;2023-01-09T03:25:21;0.17;;;0.17;;
66298;SDS011;53098;47.658;8.578;2023-01-09T03:27:48;0.73;;;0.22;;
66298;SDS011;53098;47.658;8.578;2023-01-09T03:30:13;0.82;;;0.30;;
66298;SDS011;53098;47.658;8.578;2023-01-09T03:32:39;0.40;;;0.30;;
66298;SDS011;53098;47.658;8.578;2023-01-09T03:35:04;0.23;;;0.23;;
66298;SDS011;53098;47.658;8.578;2023-01-09T03:37:29;2.45;;;0.43;;
66298;SDS011;53098;47.658;8.578;2023-01-09T03:39:54;0.40;;;0.20;;
66298;SDS011;53098;47.658;8.578;2023-01-09T03:42:20;0.30;;;0.30;;
66298;SDS011;53098;47.658;8.578;2023-01-09T03:44:45;0.80;;;0.47;;
66298;SDS011;53098;47.658;8.578;2023-01-09T03:47:10;1.67;;;0.70;;
66298;SDS011;53098;47.658;8.578;2023-01-09T03:49:35;1.23;;;0.30;;
66298;SDS011;53098;47.658;8.578;2023-01-09T03:52:01;1.73;;;0.50;;
66298;SDS011;53098;47.658;8.578;2023-01-09T03:54:26;2.33;;;0.63;;
66298;SDS011;53098;47.658;8.578;2023-01-09T03:56:51;3.87;;;0.93;;
66298;SDS011;53098;47.658;8.578;2023-01-09T03:59:16;0.70;;;0.43;;
66298;SDS011;53098;47.658;8.578;2023-01-09T04:01:42;0.53;;;0.30;;
66298;SDS011;53098;47.658;8.578;2023-01-09T04:04:07;0.27;;;0.27;;
66298;SDS011;53098;47.658;8.578;2023-01-09T04:06:32;0.60;;;0.60;;
66298;SDS011;53098;47.658;8.578;2023-01-09T04:08:57;0.57;;;0.30;;
66298;SDS011;53098;47.658;8.578;2023-01-09T04:11:23;0.87;;;0.60;;
66298;SDS011;53098;47.658;8.578;2023-01-09T04:13:48;1.70;;;0.53;;
66298;SDS011;53098;47.658;8.578;2023-01-09T04:16:13;1.00;;;0.50;;
66298;SDS011;53098;47.658;8.578;2023-01-09T04:18:38;1.23;;;0.67;;
66298;SDS011;53098;47.658;8.578;2023-01-09T04:21:04;0.50;;;0.50;;
66298;SDS011;53098;47.658;8.578;2023-01-09T04:23:29;0.40;;;0.40;;
66298;SDS011;53098;47.658;8.578;2023-01-09T04:25:54;1.37;;;0.53;;
66298;SDS011;53098;47.658;8.578;2023-01-09T04:28:19;1.30;;;0.47;;
66298;SDS011;53098;47.658;8.578;2023-01-09T04:30:45;0.40;;;0.20;;
66298;SDS011;53098;47.658;8.578;2023-01-09T04:33:10;1.77;;;0.50;;
66298;SDS011;53098;47.658;8.578;2023-01-09T04:35:35;1.03;;;0.40;;
66298;SDS011;53098;47.658;8.578;2023-01-09T04:38:00;1.60;;;0.67;;
66298;SDS011;53098;47.658;8.578;2023-01-09T04:40:26;1.57;;;0.70;;
66298;SDS011;53098;47.658;8.578;2023-01-09T04:42:51;2.15;;;0.45;;
66298;SDS011;53098;47.658;8.578;2023-01-09T04:45:16;0.80;;;0.40;;
66298;SDS011;53098;47.658;8.578;2023-01-09T04:47:42;0.43;;;0.30;;
66298;SDS011;53098;47.658;8.578;2023-01-09T04:50:08;2.97;;;0.32;;
66298;SDS011;53098;47.658;8.578;2023-01-09T04:52:33;0.20;;;0.20;;
66298;SDS011;53098;47.658;8.578;2023-01-09T04:54:58;0.10;;;0.10;;
66298;SDS011;53098;47.658;8.578;2023-01-09T04:57:24;1.70;;;0.45;;
66298;SDS011;53098;47.658;8.578;2023-01-09T04:59:49;1.23;;;0.30;;
66298;SDS011;53098;47.658;8.578;2023-01-09T05:02:14;2.30;;;0.50;;
66298;SDS011;53098;47.658;8.578;2023-01-09T05:04:39;1.63;;;0.40;;
66298;SDS011;53098;47.658;8.578;2023-01-09T05:07:05;1.70;;;0.50;;
66298;SDS011;53098;47.658;8.578;2023-01-09T05:09:30;2.10;;;0.43;;
66298;SDS011;53098;47.658;8.578;2023-01-09T05:11:55;1.33;;;0.60;;
66298;SDS011;53098;47.658;8.578;2023-01-09T05:14:21;0.60;;;0.33;;
66298;SDS011;53098;47.658;8.578;2023-01-09T05:16:46;0.45;;;0.45;;
66298;SDS011;53098;47.658;8.578;2023-01-09T05:19:11;1.03;;;0.60;;
66298;SDS011;53098;47.658;8.578;2023-01-09T05:21:37;0.77;;;0.50;;
66298;SDS011;53098;47.658;8.578;2023-01-09T05:24:02;2.35;;;0.55;;
66298;SDS011;53098;47.658;8.578;2023-01-09T05:26:27;1.37;;;0.40;;
66298;SDS011;53098;47.658;8.578;2023-01-09T05:28:53;4.40;;;0.57;;
66298;SDS011;53098;47.658;8.578;2023-01-09T05:31:18;1.05;;;0.45;;
66298;SDS011;53098;47.658;8.578;2023-01-09T05:33:44;1.38;;;0.43;;
66298;SDS011;53098;47.658;8.578;2023-01-09T05:36:09;2.97;;;0.60;;
66298;SDS011;53098;47.658;8.578;2023-01-09T05:38:35;3.10;;;0.47;;
66298;SDS011;53098;47.658;8.578;2023-01-09T05:41:01;4.10;;;0.47;;
66298;SDS011;53098;47.658;8.578;2023-01-09T05:43:26;2.17;;;0.50;;
66298;SDS011;53098;47.658;8.578;2023-01-09T05:45:51;2.83;;;0.73;;
66298;SDS011;53098;47.658;8.578;2023-01-09T05:48:16;1.50;;;0.23;;
66298;SDS011;53098;47.658;8.578;2023-01-09T05:50:42;4.17;;;0.83;;
66298;SDS011;53098;47.658;8.578;2023-01-09T05:53:07;1.75;;;0.65;;
66298;SDS011;53098;47.658;8.578;2023-01-09T05:55:32;2.10;;;0.70;;
66298;SDS011;53098;47.658;8.578;2023-01-09T05:57:58;2.72;;;1.00;;
66298;SDS011;53098;47.658;8.578;2023-01-09T06:00:23;5.33;;;0.73;;
66298;SDS011;53098;47.658;8.578;2023-01-09T06:02:48;0.83;;;0.53;;
66298;SDS011;53098;47.658;8.578;2023-01-09T06:05:13;3.33;;;0.60;;
66298;SDS011;53098;47.658;8.578;2023-01-09T06:07:39;4.30;;;0.53;;
66298;SDS011;53098;47.658;8.578;2023-01-09T06:10:04;3.40;;;0.63;;
66298;SDS011;53098;47.658;8.578;2023-01-09T06:12:29;5.55;;;0.63;;
66298;SDS011;53098;47.658;8.578;2023-01-09T06:14:55;4.60;;;0.50;;
66298;SDS011;53098;47.658;8.578;2023-01-09T06:17:20;0.90;;;0.50;;
66298;SDS011;53098;47.658;8.578;2023-01-09T06:19:45;2.10;;;0.80;;
66298;SDS011;53098;47.658;8.578;2023-01-09T06:22:10;3.67;;;0.57;;
66298;SDS011;53098;47.658;8.578;2023-01-09T06:24:36;2.00;;;0.70;;
66298;SDS011;53098;47.658;8.578;2023-01-09T06:27:01;3.70;;;1.00;;
66298;SDS011;53098;47.658;8.578;2023-01-09T06:29:26;4.93;;;0.97;;
66298;SDS011;53098;47.658;8.578;2023-01-09T06:31:51;5.43;;;0.80;;
66298;SDS011;53098;47.658;8.578;2023-01-09T06:34:17;5.57;;;0.60;;
66298;SDS011;53098;47.658;8.578;2023-01-09T06:36:42;1.57;;;0.50;;
66298;SDS011;53098;47.658;8.578;2023-01-09T06:39:07;3.17;;;1.00;;
66298;SDS011;53098;47.658;8.578;2023-01-09T06:41:32;4.03;;;0.93;;
66298;SDS011;53098;47.658;8.578;2023-01-09T06:43:58;3.77;;;0.60;;
66298;SDS011;53098;47.658;8.578;2023-01-09T06:46:23;2.80;;;0.83;;
66298;SDS011;53098;47.658;8.578;2023-01-09T06:48:48;4.80;;;0.67;;
66298;SDS011;53098;47.658;8.578;2023-01-09T06:51:13;3.23;;;0.80;;
66298;SDS011;53098;47.658;8.578;2023-01-09T06:53:39;3.00;;;0.97;;
66298;SDS011;53098;47.658;8.578;2023-01-09T06:56:04;5.17;;;1.03;;
66298;SDS011;53098;47.658;8.578;2023-01-09T06:58:29;4.53;;;1.30;;
66298;SDS011;53098;47.658;8.578;2023-01-09T07:00:54;3.53;;;1.23;;
66298;SDS011;53098;47.658;8.578;2023-01-09T07:03:20;3.27;;;0.70;;
66298;SDS011;53098;47.658;8.578;2023-01-09T07:05:45;3.88;;;0.85;;
66298;SDS011;53098;47.658;8.578;2023-01-09T07:08:10;3.07;;;0.67;;
66298;SDS011;53098;47.658;8.578;2023-01-09T07:10:36;0.83;;;0.40;;
66298;SDS011;53098;47.658;8.578;2023-01-09T07:13:01;2.23;;;0.83;;
66298;SDS011;53098;47.658;8.578;2023-01-09T07:15:26;2.80;;;0.80;;
66298;SDS011;53098;47.658;8.578;2023-01-09T07:17:52;3.80;;;0.60;;
66298;SDS011;53098;47.658;8.578;2023-01-09T07:20:17;1.25;;;0.80;;
66298;SDS011;53098;47.658;8.578;2023-01-09T07:22:43;3.33;;;0.80;;
66298;SDS011;53098;47.658;8.578;2023-01-09T07:25:09;10.00;;;1.25;;
66298;SDS011;53098;47.658;8.578;2023-01-09T07:27:34;2.63;;;0.60;;
66298;SDS011;53098;47.658;8.578;2023-01-09T07:29:59;3.03;;;0.60;;
66298;SDS011;53098;47.658;8.578;2023-01-09T07:32:24;5.60;;;1.50;;
66298;SDS011;53098;47.658;8.578;2023-01-09T07:34:50;1.23;;;0.63;;
66298;SDS011;53098;47.658;8.578;2023-01-09T07:37:15;2.73;;;0.70;;
66298;SDS011;53098;47.658;8.578;2023-01-09T07:39:40;3.03;;;0.80;;
66298;SDS011;53098;47.658;8.578;2023-01-09T07:42:05;2.00;;;0.60;;
66298;SDS011;53098;47.658;8.578;2023-01-09T07:44:31;3.03;;;0.70;;
66298;SDS011;53098;47.658;8.578;2023-01-09T07:46:56;3.33;;;0.80;;
66298;SDS011;53098;47.658;8.578;2023-01-09T07:49:21;5.33;;;1.20;;
66298;SDS011;53098;47.658;8.578;2023-01-09T07:51:47;3.67;;;1.00;;
66298;SDS011;53098;47.658;8.578;2023-01-09T07:54:12;3.93;;;1.03;;
66298;SDS011;53098;47.658;8.578;2023-01-09T07:56:38;2.63;;;0.80;;
66298;SDS011;53098;47.658;8.578;2023-01-09T07:59:03;3.10;;;0.85;;
66298;SDS011;53098;47.658;8.578;2023-01-09T08:01:28;5.53;;;1.17;;
66298;SDS011;53098;47.658;8.578;2023-01-09T08:03:54;3.70;;;0.97;;
66298;SDS011;53098;47.658;8.578;2023-01-09T08:06:19;3.30;;;1.00;;
66298;SDS011;53098;47.658;8.578;2023-01-09T08:08:44;3.03;;;0.63;;
66298;SDS011;53098;47.658;8.578;2023-01-09T08:11:09;2.40;;;0.83;;
66298;SDS011;53098;47.658;8.578;2023-01-09T08:13:35;3.30;;;0.90;;
66298;SDS011;53098;47.658;8.578;2023-01-09T08:16:00;4.27;;;0.87;;
66298;SDS011;53098;47.658;8.578;2023-01-09T08:18:25;3.00;;;0.97;;
66298;SDS011;53098;47.658;8.578;2023-01-09T08:20:51;5.23;;;1.27;;
66298;SDS011;53098;47.658;8.578;2023-01-09T08:23:16;2.03;;;0.60;;
66298;SDS011;53098;47.658;8.578;2023-01-09T08:25:42;6.93;;;1.30;;
66298;SDS011;53098;47.658;8.578;2023-01-09T08:28:07;4.40;;;1.13;;
66298;SDS011;53098;47.658;8.578;2023-01-09T08:30:32;4.47;;;1.30;;
66298;SDS011;53098;47.658;8.578;2023-01-09T08:32:57;3.33;;;0.90;;
66298;SDS011;53098;47.658;8.578;2023-01-09T08:35:22;3.87;;;0.97;;
66298;SDS011;53098;47.658;8.578;2023-01-09T08:37:48;3.83;;;1.10;;
66298;SDS011;53098;47.658;8.578;2023-01-09T08:40:14;5.22;;;0.90;;
66298;SDS011;53098;47.658;8.578;2023-01-09T08:42:39;6.93;;;1.30;;
66298;SDS011;53098;47.658;8.578;2023-01-09T08:45:05;3.33;;;0.98;;
66298;SDS011;53098;47.658;8.578;2023-01-09T08:47:31;6.68;;;1.33;;
66298;SDS011;53098;47.658;8.578;2023-01-09T08:49:56;4.17;;;0.80;;
66298;SDS011;53098;47.658;8.578;2023-01-09T08:52:21;3.93;;;1.00;;
66298;SDS011;53098;47.658;8.578;2023-01-09T08:54:46;8.07;;;2.23;;
66298;SDS011;53098;47.658;8.578;2023-01-09T08:57:12;2.60;;;0.80;;
66298;SDS011;53098;47.658;8.578;2023-01-09T08:59:37;6.67;;;2.03;;
66298;SDS011;53098;47.658;8.578;2023-01-09T09:02:02;3.67;;;0.70;;
66298;SDS011;53098;47.658;8.578;2023-01-09T09:04:27;12.40;;;5.20;;
66298;SDS011;53098;47.658;8.578;2023-01-09T09:06:53;2.47;;;0.67;;
66298;SDS011;53098;47.658;8.578;2023-01-09T09:09:18;5.13;;;1.13;;
66298;SDS011;53098;47.658;8.578;2023-01-09T09:11:43;5.73;;;1.20;;
66298;SDS011;53098;47.658;8.578;2023-01-09T09:14:09;3.28;;;0.77;;
66298;SDS011;53098;47.658;8.578;2023-01-09T09:16:34;3.73;;;1.00;;
66298;SDS011;53098;47.658;8.578;2023-01-09T09:18:59;3.90;;;0.60;;
66298;SDS011;53098;47.658;8.578;2023-01-09T09:21:24;2.00;;;0.63;;
66298;SDS011;53098;47.658;8.578;2023-01-09T09:23:50;4.40;;;0.70;;
66298;SDS011;53098;47.658;8.578;2023-01-09T09:26:15;6.80;;;1.30;;
66298;SDS011;53098;47.658;8.578;2023-01-09T09:28:40;12.77;;;1.90;;
66298;SDS011;53098;47.658;8.578;2023-01-09T09:31:06;7.30;;;1.00;;
66298;SDS011;53098;47.658;8.578;2023-01-09T09:33:31;5.53;;;1.30;;
66298;SDS011;53098;47.658;8.578;2023-01-09T09:35:57;6.00;;;1.60;;
66298;SDS011;53098;47.658;8.578;2023-01-09T09:38:22;16.00;;;2.05;;
66298;SDS011;53098;47.658;8.578;2023-01-09T09:53:16;4.43;;;1.13;;
66298;SDS011;53098;47.658;8.578;2023-01-09T09:55:42;3.55;;;1.23;;
66298;SDS011;53098;47.658;8.578;2023-01-09T10:00:39;2.83;;;0.80;;
66298;SDS011;53098;47.658;8.578;2023-01-09T10:03:05;1.77;;;0.63;;
66298;SDS011;53098;47.658;8.578;2023-01-09T10:05:39;4.40;;;0.98;;
66298;SDS011;53098;47.658;8.578;2023-01-09T10:08:10;2.33;;;0.65;;
66298;SDS011;53098;47.658;8.578;2023-01-09T10:10:40;4.57;;;0.65;;
66298;SDS011;53098;47.658;8.578;2023-01-09T10:13:07;4.88;;;0.90;;
66298;SDS011;53098;47.658;8.578;2023-01-09T10:15:44;4.43;;;1.15;;
66298;SDS011;53098;47.658;8.578;2023-01-09T10:23:35;5.57;;;1.00;;
66298;SDS011;53098;47.658;8.578;2023-01-09T10:26:09;3.83;;;1.13;;
66298;SDS011;53098;47.658;8.578;2023-01-09T10:33:59;7.00;;;0.98;;
66298;SDS011;53098;47.658;8.578;2023-01-09T10:38:53;1.23;;;0.50;;
66298;SDS011;53098;47.658;8.578;2023-01-09T10:41:21;3.20;;;0.80;;
66298;SDS011;53098;47.658;8.578;2023-01-09T10:46:18;5.32;;;1.48;;
66298;SDS011;53098;47.658;8.578;2023-01-09T10:48:46;3.65;;;1.02;;
66298;SDS011;53098;47.658;8.578;2023-01-09T10:51:17;1.60;;;0.70;;
66298;SDS011;53098;47.658;8.578;2023-01-09T10:53:44;3.45;;;0.93;;
66298;SDS011;53098;47.658;8.578;2023-01-09T10:58:39;5.15;;;1.70;;
66298;SDS011;53098;47.658;8.578;2023-01-09T11:01:05;3.13;;;1.00;;
66298;SDS011;53098;47.658;8.578;2023-01-09T11:03:31;3.97;;;0.63;;
66298;SDS011;53098;47.658;8.578;2023-01-09T11:05:57;4.23;;;0.70;;
66298;SDS011;53098;47.658;8.578;2023-01-09T11:08:28;4.57;;;0.90;;
66298;SDS011;53098;47.658;8.578;2023-01-09T11:10:55;1.65;;;0.82;;
66298;SDS011;53098;47.658;8.578;2023-01-09T11:13:21;4.40;;;0.70;;
66298;SDS011;53098;47.658;8.578;2023-01-09T11:16:01;4.78;;;1.25;;
66298;SDS011;53098;47.658;8.578;2023-01-09T11:18:27;1.40;;;0.43;;
66298;SDS011;53098;47.658;8.578;2023-01-09T11:20:52;2.75;;;0.80;;
66298;SDS011;53098;47.658;8.578;2023-01-09T11:23:28;3.95;;;0.95;;
66298;SDS011;53098;47.658;8.578;2023-01-09T11:25:55;1.30;;;0.70;;
66298;SDS011;53098;47.658;8.578;2023-01-09T11:28:23;4.35;;;1.20;;
66298;SDS011;53098;47.658;8.578;2023-01-09T11:33:21;5.32;;;0.95;;
66298;SDS011;53098;47.658;8.578;2023-01-09T11:36:00;39.58;;;11.65;;
66298;SDS011;53098;47.658;8.578;2023-01-09T11:38:26;11.90;;;2.58;;
66298;SDS011;53098;47.658;8.578;2023-01-09T11:43:27;8.20;;;2.73;;
66298;SDS011;53098;47.658;8.578;2023-01-09T11:45:53;7.72;;;1.88;;
66298;SDS011;53098;47.658;8.578;2023-01-09T11:53:17;4.80;;;0.90;;
66298;SDS011;53098;47.658;8.578;2023-01-09T11:55:43;4.82;;;1.58;;
66298;SDS011;53098;47.658;8.578;2023-01-09T11:58:12;5.05;;;0.98;;
66298;SDS011;53098;47.658;8.578;2023-01-09T12:00:41;5.85;;;0.90;;
66298;SDS011;53098;47.658;8.578;2023-01-09T12:03:23;3.88;;;1.25;;
66298;SDS011;53098;47.658;8.578;2023-01-09T12:08:27;5.20;;;1.40;;
66298;SDS011;53098;47.658;8.578;2023-01-09T12:13:52;2.47;;;1.25;;
66298;SDS011;53098;47.658;8.578;2023-01-09T12:16:23;2.25;;;0.60;;
66298;SDS011;53098;47.658;8.578;2023-01-09T12:18:56;0.93;;;0.50;;
66298;SDS011;53098;47.658;8.578;2023-01-09T12:25:30;3.55;;;1.45;;
66298;SDS011;53098;47.658;8.578;2023-01-09T12:47:46;1.58;;;0.82;;
66298;SDS011;53098;47.658;8.578;2023-01-09T12:55:23;1.58;;;0.70;;
66298;SDS011;53098;47.658;8.578;2023-01-09T12:57:50;1.77;;;0.80;;
66298;SDS011;53098;47.658;8.578;2023-01-09T13:07:40;3.67;;;1.03;;
66298;SDS011;53098;47.658;8.578;2023-01-09T13:10:17;0.93;;;0.40;;
66298;SDS011;53098;47.658;8.578;2023-01-09T13:12:43;2.85;;;0.50;;
66298;SDS011;53098;47.658;8.578;2023-01-09T13:15:32;1.52;;;0.47;;
66298;SDS011;53098;47.658;8.578;2023-01-09T13:18:00;4.22;;;1.00;;
66298;SDS011;53098;47.658;8.578;2023-01-09T13:20:39;4.63;;;1.45;;
66298;SDS011;53098;47.658;8.578;2023-01-09T13:23:06;7.28;;;2.13;;
66298;SDS011;53098;47.658;8.578;2023-01-09T13:28:06;6.78;;;1.25;;
66298;SDS011;53098;47.658;8.578;2023-01-09T13:30:39;4.00;;;1.63;;
66298;SDS011;53098;47.658;8.578;2023-01-09T13:33:15;5.93;;;2.42;;
66298;SDS011;53098;47.658;8.578;2023-01-09T13:35:48;2.50;;;1.00;;
66298;SDS011;53098;47.658;8.578;2023-01-09T13:38:18;1.85;;;1.15;;
66298;SDS011;53098;47.658;8.578;2023-01-09T13:40:44;5.40;;;0.85;;
66298;SDS011;53098;47.658;8.578;2023-01-09T13:43:10;2.00;;;1.00;;
66298;SDS011;53098;47.658;8.578;2023-01-09T13:45:35;5.00;;;1.13;;
66298;SDS011;53098;47.658;8.578;2023-01-09T13:50:33;3.45;;;1.02;;
66298;SDS011;53098;47.658;8.578;2023-01-09T13:53:44;1.93;;;0.60;;
66298;SDS011;53098;47.658;8.578;2023-01-09T14:00:47;2.35;;;0.90;;
66298;SDS011;53098;47.658;8.578;2023-01-09T14:08:03;4.63;;;1.70;;
66298;SDS011;53098;47.658;8.578;2023-01-09T14:10:32;8.48;;;1.77;;
66298;SDS011;53098;47.658;8.578;2023-01-09T14:12:59;2.30;;;0.77;;
66298;SDS011;53098;47.658;8.578;2023-01-09T14:15:39;4.88;;;1.83;;
66298;SDS011;53098;47.658;8.578;2023-01-09T14:20:34;10.83;;;1.60;;
66298;SDS011;53098;47.658;8.578;2023-01-09T14:23:00;8.68;;;1.85;;
66298;SDS011;53098;47.658;8.578;2023-01-09T14:25:27;9.02;;;1.77;;
66298;SDS011;53098;47.658;8.578;2023-01-09T14:38:03;7.83;;;1.83;;
66298;SDS011;53098;47.658;8.578;2023-01-09T14:40:30;5.03;;;1.30;;
66298;SDS011;53098;47.658;8.578;2023-01-09T14:42:57;6.95;;;1.17;;
66298;SDS011;53098;47.658;8.578;2023-01-09T14:45:24;2.85;;;0.80;;
66298;SDS011;53098;47.658;8.578;2023-01-09T14:48:05;5.32;;;0.60;;
66298;SDS011;53098;47.658;8.578;2023-01-09T14:55:35;8.32;;;1.80;;
66298;SDS011;53098;47.658;8.578;2023-01-09T14:58:10;6.60;;;1.92;;
66298;SDS011;53098;47.658;8.578;2023-01-09T15:00:36;3.33;;;0.98;;
66298;SDS011;53098;47.658;8.578;2023-01-09T15:03:01;3.87;;;0.87;;
66298;SDS011;53098;47.658;8.578;2023-01-09T15:05:27;4.80;;;0.95;;
66298;SDS011;53098;47.658;8.578;2023-01-09T15:10:19;3.33;;;1.00;;
66298;SDS011;53098;47.658;8.578;2023-01-09T15:12:45;4.60;;;0.75;;
66298;SDS011;53098;47.658;8.578;2023-01-09T15:15:12;5.03;;;1.13;;
66298;SDS011;53098;47.658;8.578;2023-01-09T15:17:38;5.78;;;1.10;;
66298;SDS011;53098;47.658;8.578;2023-01-09T15:20:04;5.43;;;1.02;;
66298;SDS011;53098;47.658;8.578;2023-01-09T15:22:31;4.00;;;1.15;;
66298;SDS011;53098;47.658;8.578;2023-01-09T15:24:57;6.07;;;0.52;;
66298;SDS011;53098;47.658;8.578;2023-01-09T15:27:23;2.63;;;0.68;;
66298;SDS011;53098;47.658;8.578;2023-01-09T15:29:49;3.65;;;0.63;;
66298;SDS011;53098;47.658;8.578;2023-01-09T15:32:16;1.75;;;0.93;;
66298;SDS011;53098;47.658;8.578;2023-01-09T15:34:45;3.40;;;1.10;;
66298;SDS011;53098;47.658;8.578;2023-01-09T15:37:21;5.05;;;1.50;;
66298;SDS011;53098;47.658;8.578;2023-01-09T15:39:48;2.58;;;0.52;;
66298;SDS011;53098;47.658;8.578;2023-01-09T15:42:18;2.17;;;1.20;;
66298;SDS011;53098;47.658;8.578;2023-01-09T15:44:45;1.83;;;0.70;;
66298;SDS011;53098;47.658;8.578;2023-01-09T15:47:21;1.23;;;0.77;;
66298;SDS011;53098;47.658;8.578;2023-01-09T15:49:47;2.00;;;0.88;;
66298;SDS011;53098;47.658;8.578;2023-01-09T15:52:13;6.38;;;2.20;;
66298;SDS011;53098;47.658;8.578;2023-01-09T15:54:39;2.30;;;0.47;;
66298;SDS011;53098;47.658;8.578;2023-01-09T15:59:48;3.92;;;1.00;;
66298;SDS011;53098;47.658;8.578;2023-01-09T16:02:13;3.87;;;1.37;;
66298;SDS011;53098;47.658;8.578;2023-01-09T16:04:39;3.10;;;1.20;;
66298;SDS011;53098;47.658;8.578;2023-01-09T16:07:08;3.37;;;1.00;;
66298;SDS011;53098;47.658;8.578;2023-01-09T16:09:35;5.35;;;1.42;;
66298;SDS011;53098;47.658;8.578;2023-01-09T16:12:00;4.17;;;1.30;;
66298;SDS011;53098;47.658;8.578;2023-01-09T16:14:33;8.35;;;3.00;;
66298;SDS011;53098;47.658;8.578;2023-01-09T16:17:02;5.18;;;2.08;;
66298;SDS011;53098;47.658;8.578;2023-01-09T16:21:57;4.05;;;0.95;;
66298;SDS011;53098;47.658;8.578;2023-01-09T16:24:24;6.43;;;1.55;;
66298;SDS011;53098;47.658;8.578;2023-01-09T16:26:50;3.95;;;1.13;;
66298;SDS011;53098;47.658;8.578;2023-01-09T16:29:25;3.45;;;1.25;;
66298;SDS011;53098;47.658;8.578;2023-01-09T16:31:56;4.18;;;0.90;;
66298;SDS011;53098;47.658;8.578;2023-01-09T16:34:22;6.15;;;1.20;;
66298;SDS011;53098;47.658;8.578;2023-01-09T16:36:47;4.55;;;0.80;;
66298;SDS011;53098;47.658;8.578;2023-01-09T16:39:13;1.80;;;0.67;;
66298;SDS011;53098;47.658;8.578;2023-01-09T16:41:38;1.80;;;0.85;;
66298;SDS011;53098;47.658;8.578;2023-01-09T16:44:07;2.28;;;0.88;;
66298;SDS011;53098;47.658;8.578;2023-01-09T16:46:32;1.77;;;0.75;;
66298;SDS011;53098;47.658;8.578;2023-01-09T16:48:58;3.67;;;0.85;;
66298;SDS011;53098;47.658;8.578;2023-01-09T16:51:24;3.47;;;1.57;;
66298;SDS011;53098;47.658;8.578;2023-01-09T16:53:49;3.03;;;1.07;;
66298;SDS011;53098;47.658;8.578;2023-01-09T16:56:16;2.50;;;0.73;;
66298;SDS011;53098;47.658;8.578;2023-01-09T16:58:41;1.77;;;0.85;;
66298;SDS011;53098;47.658;8.578;2023-01-09T17:01:07;3.23;;;1.00;;
66298;SDS011;53098;47.658;8.578;2023-01-09T17:03:32;7.18;;;2.42;;
66298;SDS011;53098;47.658;8.578;2023-01-09T17:05:58;5.07;;;1.70;;
66298;SDS011;53098;47.658;8.578;2023-01-09T17:08:25;3.72;;;1.95;;
66298;SDS011;53098;47.658;8.578;2023-01-09T17:10:51;5.60;;;2.00;;
66298;SDS011;53098;47.658;8.578;2023-01-09T17:13:16;4.97;;;1.92;;
66298;SDS011;53098;47.658;8.578;2023-01-09T17:15:41;4.93;;;1.60;;
66298;SDS011;53098;47.658;8.578;2023-01-09T17:18:14;6.68;;;2.60;;
66298;SDS011;53098;47.658;8.578;2023-01-09T17:20:40;7.65;;;2.50;;
66298;SDS011;53098;47.658;8.578;2023-01-09T17:23:06;7.00;;;2.10;;